createdAt,value
2024-02-15T00:01:13.699Z,101504.13
2024-02-15T00:03:41.249Z,101500.81
2024-02-15T00:06:08.427Z,101509.53
2024-02-15T00:08:36.103Z,101500.09
2024-02-15T00:11:03.962Z,101502.75
2024-02-15T00:13:31.815Z,101501.94
2024-02-15T00:15:59.547Z,101508.81
2024-02-15T00:18:27.087Z,101499.16
2024-02-15T00:20:54.642Z,101500.16
2024-02-15T00:23:22.202Z,101504.34
2024-02-15T00:25:50.309Z,101502.44
2024-02-15T00:28:17.486Z,101505.88
2024-02-15T00:30:44.660Z,101502.47
2024-02-15T00:33:12.428Z,101500.81
2024-02-15T00:35:40.093Z,101509.56
2024-02-15T00:38:08.340Z,101505.88
2024-02-15T00:40:35.790Z,101494.50
2024-02-15T00:43:03.218Z,101502.47
2024-02-15T00:45:30.373Z,101502.38
2024-02-15T00:47:57.681Z,101509.25
2024-02-15T00:50:25.088Z,101504.03
2024-02-15T00:52:52.256Z,101495.41
2024-02-15T00:55:20.456Z,101491.03
2024-02-15T00:57:47.596Z,101494.56
2024-02-15T01:00:15.849Z,101492.00
2024-02-15T01:02:47.242Z,101489.47
2024-02-15T01:05:16.815Z,101491.03
2024-02-15T01:07:44.017Z,101488.63
2024-02-15T01:10:11.215Z,101490.44
2024-02-15T01:12:38.366Z,101486.78
2024-02-15T01:15:06.070Z,101493.00
2024-02-15T01:17:33.311Z,101490.41
2024-02-15T01:20:00.546Z,101493.09
2024-02-15T01:22:28.155Z,101483.59
2024-02-15T01:24:55.304Z,101483.59
2024-02-15T01:27:22.445Z,101484.28
2024-02-15T01:29:49.722Z,101480.03
2024-02-15T01:32:16.871Z,101473.81
2024-02-15T01:34:44.158Z,101478.28
2024-02-15T01:37:12.032Z,101474.81
2024-02-15T01:39:39.098Z,101471.41
2024-02-15T01:42:06.306Z,101475.88
2024-02-15T01:44:33.652Z,101463.78
2024-02-15T01:47:01.681Z,101484.50
2024-02-15T01:49:29.244Z,101485.34
2024-02-15T01:51:58.211Z,101475.69
2024-02-15T01:54:26.389Z,101475.78
2024-02-15T01:56:55.116Z,101476.38
2024-02-15T01:59:24.045Z,101476.31
2024-02-15T02:01:51.358Z,101464.06
2024-02-15T02:04:18.553Z,101468.47
2024-02-15T02:06:45.666Z,101462.28
2024-02-15T02:09:16.361Z,101453.75
2024-02-15T02:11:47.405Z,101451.28
2024-02-15T02:14:14.657Z,101451.28
2024-02-15T02:16:42.298Z,101458.22
2024-02-15T02:19:10.659Z,101450.44
2024-02-15T02:21:39.959Z,101452.19
2024-02-15T02:24:22.458Z,101450.31
2024-02-15T02:26:50.715Z,101457.28
2024-02-15T02:29:17.895Z,101439.44
2024-02-15T02:31:45.046Z,101439.41
2024-02-15T02:34:12.524Z,101442.63
2024-02-15T02:36:41.441Z,101432.38
2024-02-15T02:39:08.703Z,101437.56
2024-02-15T02:41:35.878Z,101434.03
2024-02-15T02:44:03.056Z,101430.63
2024-02-15T02:46:30.227Z,101430.63
2024-02-15T02:48:57.591Z,101435.78
2024-02-15T02:51:24.822Z,101441.53
2024-02-15T02:53:51.924Z,101444.31
2024-02-15T02:56:19.694Z,101434.84
2024-02-15T02:58:46.817Z,101427.00
2024-02-15T03:01:14.457Z,101427.06
2024-02-15T03:03:42.309Z,101427.16
2024-02-15T03:06:09.648Z,101424.41
2024-02-15T03:08:36.929Z,101435.66
2024-02-15T03:11:05.302Z,101433.75
2024-02-15T03:13:32.450Z,101428.88
2024-02-15T03:16:00.041Z,101432.91
2024-02-15T03:18:27.382Z,101433.06
2024-02-15T03:20:54.649Z,101423.63
2024-02-15T03:23:21.921Z,101424.47
2024-02-15T03:25:50.104Z,101414.91
2024-02-15T03:28:17.346Z,101425.28
2024-02-15T03:30:44.541Z,101423.72
2024-02-15T03:33:11.809Z,101415.94
2024-02-15T03:35:39.505Z,101417.53
2024-02-15T03:38:07.934Z,101426.13
2024-02-15T03:40:35.173Z,101425.38
2024-02-15T03:43:02.561Z,101420.19
2024-02-15T03:45:29.752Z,101423.63
2024-02-15T03:47:57.557Z,101415.03
2024-02-15T03:50:25.053Z,101419.28
2024-02-15T03:52:52.527Z,101416.56
2024-02-15T03:55:20.077Z,101422.69
2024-02-15T03:57:48.084Z,101422.72
2024-02-15T04:00:21.755Z,101420.84
2024-02-15T04:02:50.144Z,101413.06
2024-02-15T04:05:19.383Z,101410.47
2024-02-15T04:07:46.716Z,101415.66
2024-02-15T04:10:13.894Z,101420.72
2024-02-15T04:12:43.674Z,101422.41
2024-02-15T04:15:15.656Z,101420.00
2024-02-15T04:17:45.389Z,101410.41
2024-02-15T04:20:13.899Z,101412.16
2024-02-15T04:22:43.963Z,101415.72
2024-02-15T04:25:17.166Z,101404.34
2024-02-15T04:27:48.962Z,101399.03
2024-02-15T04:30:17.467Z,101398.41
2024-02-15T04:32:45.075Z,101405.34
2024-02-15T04:35:14.852Z,101402.59
2024-02-15T04:37:43.466Z,101412.00
2024-02-15T04:40:15.008Z,101404.25
2024-02-15T04:42:44.722Z,101416.31
2024-02-15T04:45:12.563Z,101400.81
2024-02-15T04:47:41.768Z,101397.28
2024-02-15T04:50:10.495Z,101399.00
2024-02-15T04:52:38.016Z,101392.00
2024-02-15T04:55:08.368Z,101395.63
2024-02-15T04:57:38.251Z,101388.66
2024-02-15T05:00:12.503Z,101391.34
2024-02-15T05:02:44.688Z,101390.53
2024-02-15T05:05:14.142Z,101381.25
2024-02-15T05:07:43.264Z,101372.66
2024-02-15T05:10:10.911Z,101374.22
2024-02-15T05:12:39.047Z,101377.66
2024-02-15T05:15:12.795Z,101382.84
2024-02-15T05:17:44.567Z,101386.34
2024-02-15T05:20:15.959Z,101392.38
2024-02-15T05:22:51.099Z,101388.13
2024-02-15T05:25:25.246Z,101395.09
2024-02-15T05:27:58.081Z,101394.13
2024-02-15T05:30:26.856Z,101385.47
2024-02-15T05:32:55.547Z,101388.19
2024-02-15T05:35:23.730Z,101377.66
2024-02-15T05:37:53.655Z,101380.34
2024-02-15T05:40:21.054Z,101369.13
2024-02-15T05:42:48.223Z,101364.03
2024-02-15T05:45:27.364Z,101344.94
2024-02-15T05:47:55.866Z,101328.50
2024-02-15T05:50:24.710Z,101315.53
2024-02-15T05:52:56.158Z,101308.72
2024-02-15T05:55:23.630Z,101306.06
2024-02-15T05:57:50.830Z,101306.13
2024-02-15T06:00:22.650Z,101317.38
2024-02-15T06:02:52.186Z,101316.53
2024-02-15T06:05:20.358Z,101320.78
2024-02-15T06:07:48.668Z,101324.28
2024-02-15T06:10:16.659Z,101321.81
2024-02-15T06:12:44.236Z,101321.81
2024-02-15T06:15:18.876Z,101315.69
2024-02-15T06:17:47.347Z,101321.75
2024-02-15T06:20:15.326Z,101320.78
2024-02-15T06:22:43.416Z,101327.75
2024-02-15T06:25:11.502Z,101331.22
2024-02-15T06:27:42.370Z,101333.13
2024-02-15T06:30:29.605Z,101342.59
2024-02-15T06:33:15.705Z,101345.00
2024-02-15T06:36:04.399Z,101328.63
2024-02-15T06:38:50.028Z,101341.66
2024-02-15T06:41:17.286Z,101327.78
2024-02-15T06:43:44.438Z,101324.41
2024-02-15T06:46:13.284Z,101322.38
2024-02-15T06:48:45.777Z,101328.69
2024-02-15T06:51:16.246Z,101321.75
2024-02-15T06:53:44.163Z,101319.06
2024-02-15T06:56:12.013Z,101317.47
2024-02-15T06:58:41.435Z,101307.09
2024-02-15T07:01:09.015Z,101300.19
2024-02-15T07:03:36.594Z,101313.09
2024-02-15T07:06:04.311Z,101326.00
2024-02-15T07:08:33.141Z,101327.69
2024-02-15T07:11:02.703Z,101330.34
2024-02-15T07:13:29.846Z,101333.72
2024-02-15T07:15:56.928Z,101336.38
2024-02-15T07:18:29.003Z,101348.53
2024-02-15T07:20:59.706Z,101340.63
2024-02-15T07:23:26.943Z,101332.09
2024-02-15T07:25:55.238Z,101330.34
2024-02-15T07:28:22.482Z,101318.94
2024-02-15T07:30:53.408Z,101333.78
2024-02-15T07:33:22.087Z,101347.63
2024-02-15T07:35:52.173Z,101354.50
2024-02-15T07:38:19.425Z,101367.53
2024-02-15T07:40:46.726Z,101365.78
2024-02-15T07:43:14.664Z,101375.34
2024-02-15T07:45:43.720Z,101370.13
2024-02-15T07:48:11.035Z,101360.50
2024-02-15T07:50:38.945Z,101352.78
2024-02-15T07:53:09.767Z,101367.34
2024-02-15T07:55:38.853Z,101364.09
2024-02-15T07:58:06.039Z,101357.16
2024-02-15T08:00:33.460Z,101372.69
2024-02-15T08:03:00.749Z,101365.72
2024-02-15T08:05:28.091Z,101361.50
2024-02-15T08:07:58.801Z,101363.28
2024-02-15T08:10:28.500Z,101329.50
2024-02-15T08:12:58.919Z,101309.56
2024-02-15T08:15:28.681Z,101335.63
2024-02-15T08:17:56.456Z,101319.88
2024-02-15T08:20:24.145Z,101337.16
2024-02-15T08:22:51.395Z,101329.31
2024-02-15T08:25:19.295Z,101325.16
2024-02-15T08:27:50.748Z,101329.50
2024-02-15T08:30:21.533Z,101338.88
2024-02-15T08:32:51.577Z,101338.13
2024-02-15T08:35:19.023Z,101336.31
2024-02-15T08:37:48.592Z,101338.91
2024-02-15T08:40:16.369Z,101328.50
2024-02-15T08:42:44.747Z,101322.47
2024-02-15T08:45:13.973Z,101333.88
2024-02-15T08:47:43.362Z,101326.06
2024-02-15T08:50:12.937Z,101322.53
2024-02-15T08:52:41.023Z,101312.25
2024-02-15T08:55:15.536Z,101308.81
2024-02-15T08:57:45.275Z,101288.91
2024-02-15T09:00:18.500Z,101291.50
2024-02-15T09:02:47.137Z,101282.78
2024-02-15T09:05:15.974Z,101282.78
2024-02-15T09:07:44.969Z,101286.31
2024-02-15T09:10:15.495Z,101289.84
2024-02-15T09:12:44.032Z,101297.69
2024-02-15T09:15:15.374Z,101310.75
2024-02-15T09:17:44.812Z,101307.06
2024-02-15T09:20:19.190Z,101308.03
2024-02-15T09:22:50.350Z,101309.75
2024-02-15T09:25:18.647Z,101312.44
2024-02-15T09:27:47.188Z,101308.22
2024-02-15T09:30:15.144Z,101308.94
2024-02-15T09:32:43.973Z,101306.31
2024-02-15T09:35:15.607Z,101307.22
2024-02-15T09:37:51.095Z,101310.00
2024-02-15T09:40:19.677Z,101303.97
2024-02-15T09:42:48.771Z,101301.16
2024-02-15T09:45:18.013Z,101300.44
2024-02-15T09:47:45.782Z,101311.88
2024-02-15T09:50:15.548Z,101309.28
2024-02-15T09:52:47.339Z,101320.53
2024-02-15T09:55:15.775Z,101315.47
2024-02-15T09:57:44.822Z,101316.25
2024-02-15T10:00:15.022Z,101306.59
2024-02-15T10:02:45.694Z,101311.03
2024-02-15T10:05:14.168Z,101317.19
2024-02-15T10:07:45.779Z,101318.91
2024-02-15T10:10:21.128Z,101319.72
2024-02-15T10:12:53.085Z,101319.75
2024-02-15T10:15:49.660Z,101314.44
2024-02-15T10:18:18.071Z,101320.66
2024-02-15T10:20:58.786Z,101316.13
2024-02-15T10:23:25.954Z,101313.69
2024-02-15T10:25:56.714Z,101315.59
2024-02-15T10:28:28.621Z,101314.63
2024-02-15T10:30:56.042Z,101320.81
2024-02-15T10:33:32.602Z,101316.59
2024-02-15T10:36:12.879Z,101315.69
2024-02-15T10:38:40.485Z,101318.28
2024-02-15T10:41:09.438Z,101317.47
2024-02-15T10:43:40.600Z,101308.03
2024-02-15T10:46:11.198Z,101313.22
2024-02-15T10:48:39.423Z,101311.56
2024-02-15T10:51:12.742Z,101311.78
2024-02-15T10:53:44.130Z,101307.38
2024-02-15T10:56:20.958Z,101311.81
2024-02-15T10:58:51.573Z,101312.72
2024-02-15T11:01:19.511Z,101302.31
2024-02-15T11:03:57.474Z,101308.34
2024-02-15T11:06:28.543Z,101308.34
2024-02-15T11:08:56.491Z,101301.47
2024-02-15T11:11:24.428Z,101294.56
2024-02-15T11:14:28.104Z,101289.50
2024-02-15T11:16:57.313Z,101296.53
2024-02-15T11:19:33.969Z,101295.75
2024-02-15T11:22:04.842Z,101291.38
2024-02-15T11:24:38.802Z,101285.34
2024-02-15T11:27:08.152Z,101294.09
2024-02-15T11:29:54.298Z,101289.63
2024-02-15T11:32:54.966Z,101288.78
2024-02-15T11:35:24.806Z,101280.97
2024-02-15T11:37:56.869Z,101289.75
2024-02-15T11:40:29.976Z,101239.13
2024-02-15T11:43:02.448Z,101277.53
2024-02-15T11:45:43.226Z,101282.84
2024-02-15T11:48:13.619Z,101274.91
2024-02-15T11:50:44.174Z,101269.84
2024-02-15T11:53:12.655Z,101267.19
2024-02-15T11:55:43.212Z,101263.84
2024-02-15T11:58:11.692Z,101257.78
2024-02-15T12:00:59.064Z,101263.00
2024-02-15T12:03:56.922Z,101246.47
2024-02-15T12:06:50.438Z,101252.63
2024-02-15T12:09:40.076Z,101251.78
2024-02-15T12:12:26.669Z,101244.03
2024-02-15T12:15:19.601Z,101247.63
2024-02-15T12:18:05.915Z,101236.38
2024-02-15T12:20:33.622Z,101243.31
2024-02-15T12:23:03.600Z,101238.97
2024-02-15T12:25:34.236Z,101229.50
2024-02-15T12:28:05.389Z,101224.28
2024-02-15T12:30:41.660Z,101224.38
2024-02-15T12:33:20.532Z,101211.47
2024-02-15T12:35:52.262Z,101208.06
2024-02-15T12:38:19.625Z,101202.81
2024-02-15T12:40:48.187Z,101201.94
2024-02-15T12:43:17.147Z,101199.31
2024-02-15T12:45:44.607Z,101197.66
2024-02-15T12:48:12.901Z,101202.00
2024-02-15T12:50:40.532Z,101205.53
2024-02-15T12:53:09.243Z,101190.78
2024-02-15T12:55:38.682Z,101184.75
2024-02-15T12:58:14.798Z,101184.75
2024-02-15T13:00:42.885Z,101185.69
2024-02-15T13:03:16.345Z,101180.50
2024-02-15T13:05:44.954Z,101181.41
2024-02-15T13:08:15.490Z,101178.84
2024-02-15T13:10:44.322Z,101181.50
2024-02-15T13:13:14.417Z,101174.50
2024-02-15T13:15:42.190Z,101165.84
2024-02-15T13:18:15.455Z,101164.13
2024-02-15T13:20:43.092Z,101159.78
2024-02-15T13:23:24.101Z,101158.91
2024-02-15T13:25:53.489Z,101151.94
2024-02-15T13:28:20.749Z,101153.69
2024-02-15T13:30:50.527Z,101158.03
2024-02-15T13:33:18.674Z,101150.25
2024-02-15T13:35:46.200Z,101142.44
2024-02-15T13:38:24.831Z,101142.41
2024-02-15T13:40:53.480Z,101133.72
2024-02-15T13:43:20.702Z,101139.84
2024-02-15T13:45:49.719Z,101125.94
2024-02-15T13:48:17.733Z,101127.66
2024-02-15T13:50:46.199Z,101124.16
2024-02-15T13:53:15.488Z,101128.53
2024-02-15T13:55:42.793Z,101129.41
2024-02-15T13:58:14.294Z,101131.16
2024-02-15T14:00:43.955Z,101128.59
2024-02-15T14:03:12.765Z,101120.75
2024-02-15T14:05:42.845Z,101125.13
2024-02-15T14:08:13.041Z,101116.41
2024-02-15T14:10:40.574Z,101108.56
2024-02-15T14:13:09.932Z,101103.38
2024-02-15T14:15:39.473Z,101105.09
2024-02-15T14:18:15.527Z,101112.94
2024-02-15T14:20:50.244Z,101103.34
2024-02-15T14:23:21.085Z,101107.72
2024-02-15T14:25:51.413Z,101105.97
2024-02-15T14:28:18.604Z,101102.47
2024-02-15T14:31:04.519Z,101098.13
2024-02-15T14:33:35.245Z,101104.22
2024-02-15T14:36:04.917Z,101105.06
2024-02-15T14:38:33.866Z,101105.06
2024-02-15T14:41:03.109Z,101115.53
2024-02-15T14:43:30.619Z,101113.81
2024-02-15T14:45:58.758Z,101112.94
2024-02-15T14:48:27.064Z,101106.81
2024-02-15T14:50:56.916Z,101118.16
2024-02-15T14:53:24.805Z,101096.38
2024-02-15T14:55:52.967Z,101100.75
2024-02-15T14:58:23.167Z,101098.16
2024-02-15T15:00:50.668Z,101091.16
2024-02-15T15:03:18.659Z,101091.19
2024-02-15T15:06:05.345Z,101092.94
2024-02-15T15:08:52.032Z,101092.94
2024-02-15T15:11:38.274Z,101086.78
2024-02-15T15:14:06.348Z,101093.75
2024-02-15T15:16:34.884Z,101081.56
2024-02-15T15:19:03.464Z,101085.91
2024-02-15T15:21:30.852Z,101071.13
2024-02-15T15:23:58.297Z,101073.75
2024-02-15T15:26:25.851Z,101072.88
2024-02-15T15:28:53.088Z,101070.28
2024-02-15T15:31:23.027Z,101065.94
2024-02-15T15:33:51.249Z,101064.16
2024-02-15T15:36:20.877Z,101066.78
2024-02-15T15:38:49.426Z,101056.34
2024-02-15T15:41:17.187Z,101063.31
2024-02-15T15:43:45.103Z,101054.63
2024-02-15T15:46:18.612Z,101058.91
2024-02-15T15:48:46.273Z,101058.94
2024-02-15T15:51:16.658Z,101053.72
2024-02-15T15:53:46.592Z,101057.19
2024-02-15T15:56:16.345Z,101051.97
2024-02-15T15:58:46.588Z,101042.41
2024-02-15T16:01:17.326Z,101043.25
2024-02-15T16:03:45.275Z,101048.41
2024-02-15T16:06:13.729Z,101038.03
2024-02-15T16:08:41.136Z,101042.34
2024-02-15T16:11:08.447Z,101040.56
2024-02-15T16:13:36.026Z,101038.81
2024-02-15T16:16:05.439Z,101037.06
2024-02-15T16:18:33.442Z,101033.59
2024-02-15T16:21:01.610Z,101030.09
2024-02-15T16:23:28.794Z,101030.94
2024-02-15T16:25:56.049Z,101026.63
2024-02-15T16:28:23.186Z,101019.66
2024-02-15T16:30:50.533Z,101016.19
2024-02-15T16:33:18.210Z,101013.56
2024-02-15T16:35:47.465Z,101015.25
2024-02-15T16:38:17.306Z,101012.63
2024-02-15T16:40:44.586Z,101006.56
2024-02-15T16:43:12.004Z,101010.09
2024-02-15T16:45:40.650Z,101006.56
2024-02-15T16:48:08.131Z,101002.22
2024-02-15T16:50:36.231Z,100998.69
2024-02-15T16:53:03.883Z,100998.69
2024-02-15T16:55:34.593Z,100996.09
2024-02-15T16:58:04.230Z,100997.81
2024-02-15T17:00:32.978Z,100988.19
2024-02-15T17:03:00.427Z,100996.91
2024-02-15T17:05:28.976Z,101005.56
2024-02-15T17:07:59.853Z,100996.84
2024-02-15T17:10:27.131Z,101002.06
2024-02-15T17:12:54.792Z,101003.78
2024-02-15T17:15:29.815Z,101003.75
2024-02-15T17:17:57.659Z,100997.69
2024-02-15T17:20:25.461Z,100995.06
2024-02-15T17:22:53.305Z,100993.34
2024-02-15T17:25:25.622Z,100987.28
2024-02-15T17:27:56.642Z,100997.72
2024-02-15T17:30:25.580Z,100987.28
2024-02-15T17:32:53.718Z,100993.38
2024-02-15T17:35:22.266Z,100993.38
2024-02-15T17:37:49.940Z,100995.97
2024-02-15T17:40:19.001Z,100991.59
2024-02-15T17:42:46.533Z,100999.38
2024-02-15T17:45:14.545Z,100999.38
2024-02-15T17:47:46.030Z,101003.69
2024-02-15T17:50:19.135Z,100995.84
2024-02-15T17:52:47.275Z,101007.06
2024-02-15T17:55:16.237Z,101002.72
2024-02-15T17:57:47.075Z,101007.97
2024-02-15T18:00:17.719Z,101007.06
2024-02-15T18:02:49.640Z,100999.28
2024-02-15T18:05:18.969Z,100999.16
2024-02-15T18:07:46.745Z,101018.22
2024-02-15T18:10:15.960Z,101009.56
2024-02-15T18:12:43.633Z,101013.06
2024-02-15T18:15:14.247Z,101014.78
2024-02-15T18:17:47.543Z,101006.97
2024-02-15T18:20:18.484Z,100996.47
2024-02-15T18:22:46.725Z,101005.19
2024-02-15T18:25:14.010Z,101000.84
2024-02-15T18:27:41.263Z,101001.66
2024-02-15T18:30:13.741Z,101001.59
2024-02-15T18:32:42.209Z,101002.59
2024-02-15T18:35:12.606Z,100999.13
2024-02-15T18:37:46.228Z,100994.78
2024-02-15T18:40:22.315Z,100992.19
2024-02-15T18:42:53.725Z,100979.13
2024-02-15T18:45:21.462Z,100969.66
2024-02-15T18:47:49.124Z,100972.22
2024-02-15T18:50:21.565Z,100966.13
2024-02-15T18:52:49.691Z,100960.09
2024-02-15T18:55:17.160Z,100962.69
2024-02-15T18:57:45.462Z,100956.59
2024-02-15T19:00:25.631Z,100959.16
2024-02-15T19:03:02.956Z,100957.34
2024-02-15T19:05:30.776Z,100959.91
2024-02-15T19:07:58.890Z,100964.19
2024-02-15T19:10:26.341Z,100961.63
2024-02-15T19:12:54.386Z,100959.03
2024-02-15T19:15:23.952Z,100963.34
2024-02-15T19:17:51.558Z,100955.56
2024-02-15T19:20:18.935Z,100958.19
2024-02-15T19:22:46.036Z,100947.75
2024-02-15T19:25:19.975Z,100947.72
2024-02-15T19:27:48.959Z,100945.03
2024-02-15T19:30:18.326Z,100946.75
2024-02-15T19:32:45.728Z,100942.41
2024-02-15T19:35:15.658Z,100948.50
2024-02-15T19:37:43.606Z,100938.97
2024-02-15T19:40:21.044Z,100930.22
2024-02-15T19:42:50.334Z,100938.13
2024-02-15T19:45:22.645Z,100944.25
2024-02-15T19:47:51.585Z,100935.47
2024-02-15T19:50:23.103Z,100937.28
2024-02-15T19:52:50.775Z,100934.69
2024-02-15T19:55:23.301Z,100932.88
2024-02-15T19:57:50.602Z,100941.59
2024-02-15T20:00:20.950Z,100935.50
2024-02-15T20:02:49.470Z,100938.09
2024-02-15T20:05:16.960Z,100932.81
2024-02-15T20:07:44.145Z,100928.53
2024-02-15T20:10:12.215Z,100927.66
2024-02-15T20:12:39.581Z,100929.38
2024-02-15T20:15:09.686Z,100914.56
2024-02-15T20:17:37.632Z,100920.59
2024-02-15T20:20:09.420Z,100906.63
2024-02-15T20:22:39.477Z,100903.13
2024-02-15T20:25:10.717Z,100903.16
2024-02-15T20:27:38.751Z,100904.91
2024-02-15T20:30:06.745Z,100905.81
2024-02-15T20:32:33.961Z,100909.31
2024-02-15T20:35:01.394Z,100903.31
2024-02-15T20:37:28.624Z,100891.19
2024-02-15T20:39:55.759Z,100888.47
2024-02-15T20:42:22.958Z,100881.47
2024-02-15T20:44:50.369Z,100879.78
2024-02-15T20:47:21.234Z,100886.69
2024-02-15T20:49:48.658Z,100881.47
2024-02-15T20:52:15.966Z,100884.09
2024-02-15T20:54:44.831Z,100872.88
2024-02-15T20:57:16.181Z,100865.13
2024-02-15T20:59:43.923Z,100867.66
2024-02-15T21:02:11.480Z,100857.28
2024-02-15T21:04:39.558Z,100864.19
2024-02-15T21:07:06.988Z,100860.72
2024-02-15T21:09:34.485Z,100859.84
2024-02-15T21:12:02.804Z,100871.91
2024-02-15T21:14:29.985Z,100860.69
2024-02-15T21:16:57.039Z,100868.44
2024-02-15T21:19:24.137Z,100868.34
2024-02-15T21:21:51.489Z,100864.06
2024-02-15T21:24:18.680Z,100863.91
2024-02-15T21:26:46.529Z,100867.31
2024-02-15T21:29:15.870Z,100862.97
2024-02-15T21:31:50.638Z,100872.50
2024-02-15T21:34:21.840Z,100870.69
2024-02-15T21:36:49.141Z,100875.00
2024-02-15T21:39:16.583Z,100868.03
2024-02-15T21:41:44.146Z,100867.16
2024-02-15T21:44:13.978Z,100875.00
2024-02-15T21:46:45.416Z,100875.84
2024-02-15T21:49:12.725Z,100873.25
2024-02-15T21:51:40.063Z,100869.75
2024-02-15T21:54:07.773Z,100858.47
2024-02-15T21:56:34.969Z,100861.84
2024-02-15T21:59:02.049Z,100867.91
2024-02-15T22:01:31.623Z,100861.78
2024-02-15T22:03:58.769Z,100869.56
2024-02-15T22:06:25.986Z,100877.31
2024-02-15T22:08:53.148Z,100868.53
2024-02-15T22:11:20.361Z,100857.31
2024-02-15T22:13:47.441Z,100864.22
2024-02-15T22:16:17.057Z,100867.69
2024-02-15T22:18:46.088Z,100867.59
2024-02-15T22:21:13.704Z,100869.34
2024-02-15T22:23:41.174Z,100870.22
2024-02-15T22:26:20.646Z,100871.91
2024-02-15T22:28:48.279Z,100865.00
2024-02-15T22:31:19.719Z,100869.34
2024-02-15T22:33:47.329Z,100855.50
2024-02-15T22:36:27.785Z,100862.47
2024-02-15T22:38:55.166Z,100872.88
2024-02-15T22:41:22.878Z,100874.47
2024-02-15T22:43:50.014Z,100876.28
2024-02-15T22:46:17.305Z,100872.72
2024-02-15T22:48:45.881Z,100877.97
2024-02-15T22:51:16.014Z,100876.13
2024-02-15T22:53:46.489Z,100875.34
2024-02-15T22:56:14.129Z,100863.03
2024-02-15T22:58:41.450Z,100858.66
2024-02-15T23:01:12.790Z,100866.56
2024-02-15T23:03:40.976Z,100869.88
2024-02-15T23:06:09.382Z,100868.22
2024-02-15T23:08:36.595Z,100863.00
2024-02-15T23:11:03.957Z,100863.00
2024-02-15T23:13:31.125Z,100866.44
2024-02-15T23:15:58.703Z,100863.00
2024-02-15T23:18:27.736Z,100856.06
2024-02-15T23:20:54.908Z,100856.06
2024-02-15T23:23:23.470Z,100854.31
2024-02-15T23:25:50.598Z,100862.13
2024-02-15T23:28:18.035Z,100861.19
2024-02-15T23:30:48.036Z,100860.34
2024-02-15T23:33:20.542Z,100857.69
2024-02-15T23:36:08.389Z,100855.03
2024-02-15T23:38:54.392Z,100858.53
2024-02-15T23:41:21.504Z,100853.34
2024-02-15T23:43:48.735Z,100848.19
2024-02-15T23:46:16.140Z,100850.81
2024-02-15T23:48:46.089Z,100845.63
2024-02-15T23:51:13.806Z,100850.84
2024-02-15T23:53:43.943Z,100853.34
2024-02-15T23:56:11.082Z,100853.41
2024-02-15T23:58:38.138Z,100850.75
